createdAt,value
2023-04-06T00:00:13.530Z,0.99
2023-04-06T00:02:40.373Z,1.09
2023-04-06T00:05:07.854Z,1.02
2023-04-06T00:07:35.189Z,0.99
2023-04-06T00:10:02.084Z,1.02
2023-04-06T00:12:29.024Z,0.96
2023-04-06T00:14:55.881Z,0.93
2023-04-06T00:17:22.560Z,0.90
2023-04-06T00:19:49.217Z,0.87
2023-04-06T00:22:15.884Z,0.81
2023-04-06T00:24:42.531Z,0.82
2023-04-06T00:27:09.164Z,0.77
2023-04-06T00:29:36.005Z,0.69
2023-04-06T00:32:02.745Z,0.56
2023-04-06T00:34:29.541Z,0.46
2023-04-06T00:36:56.328Z,0.46
2023-04-06T00:39:23.154Z,0.39
2023-04-06T00:41:53.988Z,0.42
2023-04-06T00:44:21.245Z,0.37
2023-04-06T00:46:48.235Z,0.33
2023-04-06T00:49:15.062Z,0.42
2023-04-06T00:51:41.895Z,0.48
2023-04-06T00:54:08.673Z,0.37
2023-04-06T00:56:36.797Z,0.30
2023-04-06T00:59:03.926Z,0.31
2023-04-06T01:01:33.527Z,0.25
2023-04-06T01:04:06.183Z,0.29
2023-04-06T01:06:40.110Z,0.43
2023-04-06T01:09:07.332Z,0.52
2023-04-06T01:11:34.342Z,0.38
2023-04-06T01:14:04.551Z,0.40
2023-04-06T01:16:51.101Z,0.31
2023-04-06T01:19:22.146Z,0.29
2023-04-06T01:21:54.293Z,0.26
2023-04-06T01:24:33.238Z,0.29
2023-04-06T01:27:09.130Z,0.47
2023-04-06T01:29:53.837Z,0.34
2023-04-06T01:32:39.158Z,0.33
2023-04-06T01:35:07.569Z,0.49
2023-04-06T01:37:38.824Z,0.39
2023-04-06T01:40:09.485Z,0.25
2023-04-06T01:42:49.576Z,0.44
2023-04-06T01:45:24.382Z,0.60
2023-04-06T01:47:54.150Z,0.55
2023-04-06T01:50:24.353Z,0.53
2023-04-06T01:52:51.163Z,0.55
2023-04-06T01:55:17.919Z,0.43
2023-04-06T01:58:02.950Z,0.37
2023-04-06T02:00:35.233Z,0.29
2023-04-06T02:03:02.511Z,0.16
2023-04-06T02:05:32.609Z,0.13
2023-04-06T02:08:00.130Z,0.13
2023-04-06T02:10:35.806Z,0.10
2023-04-06T02:13:10.874Z,0.03
2023-04-06T02:15:38.181Z,-0.07
2023-04-06T02:18:05.214Z,-0.17
2023-04-06T02:20:32.217Z,-0.20
2023-04-06T02:23:01.591Z,-0.16
2023-04-06T02:25:29.116Z,-0.22
2023-04-06T02:27:55.970Z,-0.28
2023-04-06T02:30:22.707Z,-0.27
2023-04-06T02:32:49.880Z,-0.28
2023-04-06T02:35:17.258Z,-0.07
2023-04-06T02:37:44.787Z,-0.02
2023-04-06T02:40:11.705Z,-0.07
2023-04-06T02:42:38.362Z,-0.13
2023-04-06T02:45:06.794Z,-0.05
2023-04-06T02:47:38.868Z,0.03
2023-04-06T02:50:06.622Z,0.08
2023-04-06T02:52:37.278Z,0.05
2023-04-06T02:55:04.598Z,-0.11
2023-04-06T02:57:31.631Z,-0.11
2023-04-06T02:59:58.358Z,0.04
2023-04-06T03:02:33.585Z,-0.07
2023-04-06T03:05:08.161Z,-0.14
2023-04-06T03:07:38.797Z,-0.13
2023-04-06T03:10:08.241Z,-0.27
2023-04-06T03:12:34.962Z,-0.23
2023-04-06T03:15:16.803Z,0.03
2023-04-06T03:17:48.631Z,-0.19
2023-04-06T03:20:38.092Z,-0.14
2023-04-06T03:23:04.816Z,-0.20
2023-04-06T03:25:36.277Z,-0.29
2023-04-06T03:28:06.420Z,-0.35
2023-04-06T03:30:38.033Z,-0.43
2023-04-06T03:33:05.329Z,-0.45
2023-04-06T03:35:38.102Z,-0.31
2023-04-06T03:38:06.010Z,-0.35
2023-04-06T03:40:32.999Z,-0.35
2023-04-06T03:43:00.582Z,-0.45
2023-04-06T03:45:27.670Z,-0.54
2023-04-06T03:47:54.776Z,-0.46
2023-04-06T03:50:21.539Z,-0.54
2023-04-06T03:52:48.214Z,-0.40
2023-04-06T03:55:15.043Z,-0.52
2023-04-06T03:57:41.794Z,-0.58
2023-04-06T04:00:09.105Z,-0.69
2023-04-06T04:02:41.585Z,-0.67
2023-04-06T04:05:08.844Z,-0.67
2023-04-06T04:07:37.405Z,-0.78
2023-04-06T04:10:05.068Z,-0.64
2023-04-06T04:12:32.517Z,-0.73
2023-04-06T04:14:59.453Z,-0.78
2023-04-06T04:17:26.810Z,-0.85
2023-04-06T04:19:53.598Z,-0.81
2023-04-06T04:22:20.408Z,-0.82
2023-04-06T04:24:47.447Z,-0.69
2023-04-06T04:27:14.737Z,-0.80
2023-04-06T04:29:42.257Z,-0.82
2023-04-06T04:32:11.627Z,-0.87
2023-04-06T04:34:41.403Z,-0.91
2023-04-06T04:37:11.867Z,-0.98
2023-04-06T04:39:50.084Z,-1.02
2023-04-06T04:42:17.110Z,-1.02
2023-04-06T04:44:49.494Z,-1.03
2023-04-06T04:47:22.010Z,-1.09
2023-04-06T04:49:48.898Z,-1.00
2023-04-06T04:52:21.239Z,-1.10
2023-04-06T04:55:08.473Z,-1.11
2023-04-06T04:57:35.240Z,-1.09
2023-04-06T05:00:04.719Z,-1.07
2023-04-06T05:02:32.863Z,-1.08
2023-04-06T05:05:10.915Z,-1.10
2023-04-06T05:07:39.065Z,-1.04
2023-04-06T05:10:08.785Z,-1.16
2023-04-06T05:12:41.710Z,-1.18
2023-04-06T05:15:11.311Z,-1.22
2023-04-06T05:17:38.633Z,-1.17
2023-04-06T05:20:07.778Z,-1.12
2023-04-06T05:22:42.603Z,-1.10
2023-04-06T05:25:10.977Z,-1.04
2023-04-06T05:27:39.266Z,-0.87
2023-04-06T05:30:12.974Z,-0.97
2023-04-06T05:32:45.546Z,-0.83
2023-04-06T05:35:13.560Z,-0.80
2023-04-06T05:37:43.043Z,-0.78
2023-04-06T05:40:10.806Z,-0.67
2023-04-06T05:42:42.333Z,-0.32
2023-04-06T05:45:11.899Z,-0.16
2023-04-06T05:47:40.159Z,-0.18
2023-04-06T05:50:18.427Z,-0.05
2023-04-06T05:52:47.459Z,-0.08
2023-04-06T05:55:17.611Z,0.10
2023-04-06T05:57:48.644Z,0.25
2023-04-06T06:00:18.740Z,0.32
2023-04-06T06:02:54.857Z,0.55
2023-04-06T06:05:26.441Z,0.59
2023-04-06T06:07:54.006Z,0.67
2023-04-06T06:10:21.441Z,0.74
2023-04-06T06:12:48.233Z,0.83
2023-04-06T06:15:15.093Z,0.98
2023-04-06T06:17:45.477Z,1.06
2023-04-06T06:20:12.616Z,1.18
2023-04-06T06:22:41.377Z,1.21
2023-04-06T06:25:13.124Z,1.37
2023-04-06T06:27:39.966Z,1.49
2023-04-06T06:30:07.200Z,1.63
2023-04-06T06:32:36.050Z,1.74
2023-04-06T06:35:03.266Z,1.81
2023-04-06T06:37:31.188Z,2.04
2023-04-06T06:39:58.328Z,2.08
2023-04-06T06:42:25.116Z,2.12
2023-04-06T06:45:02.396Z,2.52
2023-04-06T06:47:29.100Z,2.73
2023-04-06T06:49:56.059Z,3.20
2023-04-06T06:52:24.357Z,3.22
2023-04-06T06:54:51.267Z,3.75
2023-04-06T06:57:19.920Z,3.81
2023-04-06T06:59:47.728Z,3.50
2023-04-06T07:02:14.516Z,3.74
2023-04-06T07:04:41.794Z,3.69
2023-04-06T07:07:09.536Z,3.76
2023-04-06T07:09:36.782Z,3.97
2023-04-06T07:12:03.519Z,4.07
2023-04-06T07:14:30.752Z,4.96
2023-04-06T07:16:57.532Z,4.36
2023-04-06T07:19:24.235Z,5.13
2023-04-06T07:21:51.207Z,5.12
2023-04-06T07:24:17.885Z,5.78
2023-04-06T07:26:44.694Z,5.94
2023-04-06T07:29:11.425Z,5.56
2023-04-06T07:31:38.185Z,6.05
2023-04-06T07:34:05.281Z,5.53
2023-04-06T07:36:32.107Z,5.75
2023-04-06T07:38:59.416Z,6.33
2023-04-06T07:41:26.787Z,6.75
2023-04-06T07:43:53.770Z,7.16
2023-04-06T07:46:20.499Z,8.46
2023-04-06T07:48:47.260Z,6.58
2023-04-06T07:51:16.205Z,7.47
2023-04-06T07:53:45.988Z,8.08
2023-04-06T07:56:13.665Z,9.12
2023-04-06T07:58:40.463Z,10.45
2023-04-06T08:01:07.292Z,9.36
2023-04-06T08:03:38.181Z,10.81
2023-04-06T08:06:05.542Z,8.25
2023-04-06T08:08:35.168Z,10.40
2023-04-06T08:11:03.769Z,10.61
2023-04-06T08:13:30.523Z,9.58
2023-04-06T08:15:58.167Z,10.47
2023-04-06T08:18:24.871Z,11.78
2023-04-06T08:20:51.536Z,11.18
2023-04-06T08:23:18.525Z,11.61
2023-04-06T08:25:45.547Z,12.06
2023-04-06T08:28:12.498Z,12.45
2023-04-06T08:30:42.834Z,12.87
2023-04-06T08:33:10.651Z,12.85
2023-04-06T08:35:37.512Z,12.24
2023-04-06T08:38:04.205Z,12.23
2023-04-06T08:40:31.333Z,12.80
2023-04-06T08:43:03.246Z,13.36
2023-04-06T08:45:30.469Z,13.83
2023-04-06T08:48:00.331Z,13.87
2023-04-06T08:50:27.306Z,12.76
2023-04-06T08:52:54.177Z,12.71
2023-04-06T08:55:20.959Z,12.79
2023-04-06T08:57:48.214Z,13.12
2023-04-06T09:00:15.663Z,13.74
2023-04-06T09:02:45.953Z,13.87
2023-04-06T09:05:13.532Z,13.87
2023-04-06T09:07:40.434Z,12.86
2023-04-06T09:10:07.731Z,14.91
2023-04-06T09:12:35.712Z,14.72
2023-04-06T09:15:03.243Z,15.02
2023-04-06T09:17:33.774Z,14.89
2023-04-06T09:20:01.818Z,14.45
2023-04-06T09:22:37.113Z,13.36
2023-04-06T09:25:04.257Z,14.52
2023-04-06T09:27:32.934Z,14.72
2023-04-06T09:30:17.872Z,15.20
2023-04-06T09:32:55.480Z,15.55
2023-04-06T09:35:23.816Z,14.11
2023-04-06T09:37:52.763Z,13.04
2023-04-06T09:40:20.293Z,14.40
2023-04-06T09:42:48.141Z,14.58
2023-04-06T09:45:15.496Z,14.25
2023-04-06T09:47:46.631Z,15.08
2023-04-06T09:50:14.808Z,14.76
2023-04-06T09:52:49.778Z,15.23
2023-04-06T09:55:43.178Z,14.21
2023-04-06T09:58:20.378Z,15.41
2023-04-06T10:01:10.447Z,14.89
2023-04-06T10:03:53.365Z,15.07
2023-04-06T10:06:26.802Z,15.22
2023-04-06T10:08:55.912Z,14.60
2023-04-06T10:11:23.131Z,14.45
2023-04-06T10:13:51.188Z,14.01
2023-04-06T10:16:18.532Z,14.95
2023-04-06T10:18:48.956Z,15.05
2023-04-06T10:21:21.765Z,14.05
2023-04-06T10:24:01.923Z,14.69
2023-04-06T10:26:28.702Z,13.97
2023-04-06T10:28:56.433Z,14.03
2023-04-06T10:31:29.800Z,14.07
2023-04-06T10:34:03.929Z,14.28
2023-04-06T10:36:35.375Z,14.23
2023-04-06T10:39:04.336Z,14.40
2023-04-06T10:41:49.876Z,14.43
2023-04-06T10:44:25.962Z,14.25
2023-04-06T10:47:04.167Z,13.95
2023-04-06T10:49:30.995Z,13.98
2023-04-06T10:51:58.470Z,14.27
2023-04-06T10:54:28.045Z,13.86
2023-04-06T10:56:54.962Z,14.59
2023-04-06T10:59:23.319Z,14.62
2023-04-06T11:01:50.373Z,14.08
2023-04-06T11:04:19.227Z,13.23
2023-04-06T11:06:51.145Z,14.55
2023-04-06T11:09:28.471Z,14.44
2023-04-06T11:11:56.422Z,13.57
2023-04-06T11:14:23.292Z,14.51
2023-04-06T11:16:51.358Z,15.25
2023-04-06T11:19:18.614Z,14.56
2023-04-06T11:21:50.592Z,14.94
2023-04-06T11:24:20.646Z,15.16
2023-04-06T11:26:48.344Z,15.50
2023-04-06T11:29:17.927Z,14.33
2023-04-06T11:31:55.000Z,14.86
2023-04-06T11:34:23.718Z,15.46
2023-04-06T11:36:57.805Z,15.57
2023-04-06T11:39:26.641Z,15.33
2023-04-06T11:41:59.561Z,14.65
2023-04-06T11:44:37.718Z,14.62
2023-04-06T11:47:06.879Z,14.98
2023-04-06T11:49:37.573Z,15.67
2023-04-06T11:52:04.364Z,15.83
2023-04-06T11:54:35.379Z,15.67
2023-04-06T11:57:06.194Z,15.41
2023-04-06T11:59:34.034Z,15.77
2023-04-06T12:02:03.030Z,15.73
2023-04-06T12:04:30.372Z,15.43
2023-04-06T12:06:57.862Z,15.28
2023-04-06T12:09:24.656Z,15.21
2023-04-06T12:11:51.412Z,14.84
2023-04-06T12:14:18.123Z,14.25
2023-04-06T12:16:45.013Z,14.11
2023-04-06T12:19:11.797Z,14.42
2023-04-06T12:21:38.600Z,14.43
2023-04-06T12:24:06.646Z,14.13
2023-04-06T12:26:34.387Z,14.61
2023-04-06T12:29:08.271Z,14.71
2023-04-06T12:31:42.146Z,14.54
2023-04-06T12:34:08.868Z,14.51
2023-04-06T12:36:35.628Z,13.79
2023-04-06T12:39:02.358Z,14.32
2023-04-06T12:41:29.493Z,14.10
2023-04-06T12:43:56.784Z,14.14
2023-04-06T12:46:24.522Z,14.58
2023-04-06T12:48:54.755Z,14.58
2023-04-06T12:51:21.676Z,13.61
2023-04-06T12:53:48.650Z,13.95
2023-04-06T12:56:19.471Z,14.10
2023-04-06T12:58:46.563Z,13.80
2023-04-06T13:01:17.177Z,13.67
2023-04-06T13:03:44.016Z,14.07
2023-04-06T13:06:11.883Z,14.53
2023-04-06T13:08:39.916Z,14.52
2023-04-06T13:11:09.329Z,14.44
2023-04-06T13:13:37.018Z,14.35
2023-04-06T13:16:06.891Z,14.38
2023-04-06T13:18:33.828Z,14.09
2023-04-06T13:21:01.038Z,14.01
2023-04-06T13:23:28.162Z,14.01
2023-04-06T13:26:02.597Z,13.56
2023-04-06T13:28:29.261Z,13.85
2023-04-06T13:30:56.570Z,13.64
2023-04-06T13:33:23.863Z,13.69
2023-04-06T13:35:50.528Z,13.85
2023-04-06T13:38:17.304Z,14.00
2023-04-06T13:40:44.480Z,13.93
2023-04-06T13:43:11.914Z,13.66
2023-04-06T13:45:39.633Z,13.65
2023-04-06T13:48:06.992Z,13.62
2023-04-06T13:50:34.563Z,13.62
2023-04-06T13:53:01.428Z,13.36
2023-04-06T13:55:28.251Z,13.12
2023-04-06T13:57:56.155Z,13.13
2023-04-06T14:00:23.347Z,13.30
2023-04-06T14:02:50.178Z,13.62
2023-04-06T14:05:17.094Z,13.35
2023-04-06T14:07:43.826Z,13.56
2023-04-06T14:10:15.003Z,13.44
2023-04-06T14:12:47.915Z,13.26
2023-04-06T14:15:14.779Z,13.11
2023-04-06T14:17:41.583Z,13.02
2023-04-06T14:20:08.730Z,12.89
2023-04-06T14:22:36.560Z,13.03
2023-04-06T14:25:03.470Z,13.11
2023-04-06T14:27:30.264Z,13.14
2023-04-06T14:29:57.276Z,13.07
2023-04-06T14:32:24.197Z,13.00
2023-04-06T14:34:51.310Z,13.21
2023-04-06T14:37:18.770Z,13.07
2023-04-06T14:39:45.653Z,13.06
2023-04-06T14:42:12.498Z,13.05
2023-04-06T14:44:43.882Z,12.80
2023-04-06T14:47:11.277Z,12.64
2023-04-06T14:49:38.146Z,12.42
2023-04-06T14:52:05.874Z,12.49
2023-04-06T14:54:32.698Z,12.41
2023-04-06T14:56:59.556Z,12.25
2023-04-06T14:59:26.491Z,12.31
2023-04-06T15:01:53.194Z,12.13
2023-04-06T15:04:19.999Z,12.28
2023-04-06T15:06:46.979Z,12.02
2023-04-06T15:09:13.634Z,12.07
2023-04-06T15:11:40.471Z,12.04
2023-04-06T15:14:07.599Z,12.18
2023-04-06T15:16:34.574Z,11.98
2023-04-06T15:19:01.561Z,12.08
2023-04-06T15:21:28.503Z,11.85
2023-04-06T15:23:56.005Z,11.85
2023-04-06T15:26:22.796Z,11.60
2023-04-06T15:28:49.580Z,11.63
2023-04-06T15:31:32.995Z,11.78
2023-04-06T15:34:04.226Z,11.52
2023-04-06T15:36:31.114Z,11.63
2023-04-06T15:38:58.587Z,11.54
2023-04-06T15:41:27.120Z,11.24
2023-04-06T15:43:55.119Z,11.17
2023-04-06T15:46:22.312Z,10.88
2023-04-06T15:48:49.162Z,10.96
2023-04-06T15:51:18.027Z,10.87
2023-04-06T15:53:45.599Z,10.99
2023-04-06T15:56:14.470Z,11.15
2023-04-06T15:58:41.937Z,11.07
2023-04-06T16:01:21.675Z,10.97
2023-04-06T16:03:48.607Z,10.97
2023-04-06T16:06:15.760Z,11.01
2023-04-06T16:08:42.834Z,10.68
2023-04-06T16:11:09.909Z,10.70
2023-04-06T16:13:37.272Z,10.68
2023-04-06T16:16:05.284Z,10.72
2023-04-06T16:18:34.182Z,10.67
2023-04-06T16:21:02.622Z,10.68
2023-04-06T16:23:29.439Z,10.61
2023-04-06T16:25:57.886Z,10.46
2023-04-06T16:28:25.657Z,10.24
2023-04-06T16:30:52.641Z,10.16
2023-04-06T16:33:19.656Z,9.85
2023-04-06T16:35:47.052Z,10.09
2023-04-06T16:38:14.267Z,10.15
2023-04-06T16:40:41.139Z,10.08
2023-04-06T16:43:10.015Z,10.12
2023-04-06T16:45:38.153Z,10.04
2023-04-06T16:48:05.712Z,10.13
2023-04-06T16:50:32.773Z,10.12
2023-04-06T16:52:59.597Z,10.05
2023-04-06T16:55:26.307Z,10.04
2023-04-06T16:57:56.327Z,10.01
2023-04-06T17:00:23.442Z,9.88
2023-04-06T17:02:50.166Z,9.79
2023-04-06T17:05:21.954Z,9.76
2023-04-06T17:07:48.822Z,9.73
2023-04-06T17:10:16.885Z,9.61
2023-04-06T17:12:46.625Z,9.42
2023-04-06T17:15:14.245Z,9.38
2023-04-06T17:17:41.403Z,9.30
2023-04-06T17:20:09.596Z,9.32
2023-04-06T17:22:36.410Z,9.31
2023-04-06T17:25:05.483Z,9.07
2023-04-06T17:27:32.521Z,9.12
2023-04-06T17:30:03.307Z,9.05
2023-04-06T17:32:30.121Z,9.01
2023-04-06T17:34:56.916Z,8.83
2023-04-06T17:37:23.654Z,8.75
2023-04-06T17:39:50.626Z,8.78
2023-04-06T17:42:18.417Z,8.72
2023-04-06T17:44:50.509Z,8.61
2023-04-06T17:47:19.258Z,8.54
2023-04-06T17:49:46.031Z,8.41
2023-04-06T17:52:12.836Z,8.29
2023-04-06T17:54:39.554Z,8.08
2023-04-06T17:57:07.967Z,8.16
2023-04-06T17:59:35.047Z,8.14
2023-04-06T18:02:03.289Z,7.77
2023-04-06T18:04:30.177Z,7.85
2023-04-06T18:06:56.962Z,7.87
2023-04-06T18:09:23.801Z,7.84
2023-04-06T18:11:50.845Z,7.75
2023-04-06T18:14:17.526Z,7.84
2023-04-06T18:16:44.186Z,7.74
2023-04-06T18:19:11.178Z,7.63
2023-04-06T18:21:37.893Z,7.65
2023-04-06T18:24:05.864Z,7.72
2023-04-06T18:26:34.629Z,7.77
2023-04-06T18:29:01.752Z,7.67
2023-04-06T18:31:28.592Z,7.49
2023-04-06T18:33:55.404Z,7.49
2023-04-06T18:36:22.119Z,7.54
2023-04-06T18:38:49.567Z,7.40
2023-04-06T18:41:18.167Z,7.40
2023-04-06T18:43:44.934Z,7.39
2023-04-06T18:46:13.624Z,7.37
2023-04-06T18:48:43.868Z,7.30
2023-04-06T18:51:10.663Z,7.29
2023-04-06T18:53:39.751Z,7.29
2023-04-06T18:56:18.699Z,7.23
2023-04-06T18:58:46.594Z,7.19
2023-04-06T19:01:26.834Z,7.12
2023-04-06T19:03:55.417Z,7.19
2023-04-06T19:06:23.374Z,7.18
2023-04-06T19:08:50.821Z,7.11
2023-04-06T19:11:17.585Z,7.20
2023-04-06T19:13:50.456Z,7.06
2023-04-06T19:16:18.299Z,7.12
2023-04-06T19:18:45.808Z,6.96
2023-04-06T19:21:23.271Z,6.98
2023-04-06T19:23:52.433Z,6.92
2023-04-06T19:26:22.290Z,6.96
2023-04-06T19:28:49.074Z,7.02
2023-04-06T19:31:17.887Z,7.04
2023-04-06T19:33:45.494Z,7.00
2023-04-06T19:36:12.333Z,6.99
2023-04-06T19:38:39.589Z,7.05
2023-04-06T19:41:06.714Z,6.95
2023-04-06T19:43:33.609Z,7.00
2023-04-06T19:46:00.606Z,6.99
2023-04-06T19:48:27.444Z,6.92
2023-04-06T19:50:54.893Z,6.98
2023-04-06T19:53:24.704Z,6.89
2023-04-06T19:55:51.539Z,6.86
2023-04-06T19:58:19.377Z,6.82
2023-04-06T20:00:46.147Z,6.80
2023-04-06T20:03:13.042Z,6.83
2023-04-06T20:05:40.300Z,6.72
2023-04-06T20:08:07.274Z,6.78
2023-04-06T20:10:33.944Z,6.68
2023-04-06T20:13:03.755Z,6.69
2023-04-06T20:15:31.100Z,6.55
2023-04-06T20:17:57.827Z,6.70
2023-04-06T20:20:24.617Z,6.62
2023-04-06T20:22:51.373Z,6.57
2023-04-06T20:25:18.530Z,6.68
2023-04-06T20:27:48.677Z,6.67
2023-04-06T20:30:16.986Z,6.57
2023-04-06T20:32:44.248Z,6.56
2023-04-06T20:35:11.611Z,6.58
2023-04-06T20:37:38.987Z,6.52
2023-04-06T20:40:06.648Z,6.48
2023-04-06T20:42:33.477Z,6.52
2023-04-06T20:45:01.887Z,6.56
2023-04-06T20:47:28.610Z,6.45
2023-04-06T20:49:55.707Z,6.52
2023-04-06T20:52:22.563Z,6.40
2023-04-06T20:54:50.803Z,6.36
2023-04-06T20:57:17.647Z,6.40
2023-04-06T20:59:45.430Z,6.36
2023-04-06T21:02:12.672Z,6.34
2023-04-06T21:04:39.655Z,6.41
2023-04-06T21:07:07.455Z,6.48
2023-04-06T21:09:35.642Z,6.52
2023-04-06T21:12:03.245Z,6.52
2023-04-06T21:14:30.066Z,6.55
2023-04-06T21:16:58.141Z,6.58
2023-04-06T21:19:24.925Z,6.58
2023-04-06T21:21:51.782Z,6.56
2023-04-06T21:24:18.970Z,6.51
2023-04-06T21:26:46.239Z,6.51
2023-04-06T21:29:13.055Z,6.46
2023-04-06T21:31:42.240Z,6.52
2023-04-06T21:34:13.008Z,6.49
2023-04-06T21:36:40.925Z,6.47
2023-04-06T21:39:08.007Z,6.48
2023-04-06T21:41:34.876Z,6.49
2023-04-06T21:44:01.809Z,6.57
2023-04-06T21:46:28.594Z,6.60
2023-04-06T21:48:55.374Z,6.63
2023-04-06T21:51:22.968Z,6.71
2023-04-06T21:53:50.029Z,6.69
2023-04-06T21:56:23.910Z,6.72
2023-04-06T21:58:50.891Z,6.61
2023-04-06T22:01:17.969Z,6.61
2023-04-06T22:03:46.043Z,6.71
2023-04-06T22:06:13.320Z,6.70
2023-04-06T22:08:40.056Z,6.69
2023-04-06T22:11:11.540Z,6.71
2023-04-06T22:13:38.669Z,6.67
2023-04-06T22:16:05.895Z,6.66
2023-04-06T22:18:32.649Z,6.69
2023-04-06T22:20:59.678Z,6.74
2023-04-06T22:23:26.511Z,6.71
2023-04-06T22:25:53.697Z,6.75
2023-04-06T22:28:20.458Z,6.71
2023-04-06T22:30:47.111Z,6.63
2023-04-06T22:33:13.901Z,6.68
2023-04-06T22:35:40.958Z,6.71
2023-04-06T22:38:07.738Z,6.75
2023-04-06T22:40:34.487Z,6.76
2023-04-06T22:43:01.191Z,6.72
2023-04-06T22:45:27.941Z,6.70
2023-04-06T22:47:54.767Z,6.67
2023-04-06T22:50:22.642Z,6.66
2023-04-06T22:52:49.524Z,6.66
2023-04-06T22:55:16.457Z,6.71
2023-04-06T22:57:43.196Z,6.64
2023-04-06T23:00:10.663Z,6.68
2023-04-06T23:02:37.541Z,6.69
2023-04-06T23:05:04.699Z,6.71
2023-04-06T23:07:32.852Z,6.77
2023-04-06T23:09:59.723Z,6.76
2023-04-06T23:12:26.555Z,6.71
2023-04-06T23:14:53.520Z,6.71
2023-04-06T23:17:20.323Z,6.72
2023-04-06T23:19:47.421Z,6.71
2023-04-06T23:22:14.178Z,6.70
2023-04-06T23:24:40.916Z,6.71
2023-04-06T23:27:07.663Z,6.74
2023-04-06T23:29:34.458Z,6.78
2023-04-06T23:32:01.481Z,6.76
2023-04-06T23:34:28.407Z,6.77
2023-04-06T23:36:55.302Z,6.71
2023-04-06T23:39:22.049Z,6.70
2023-04-06T23:41:48.729Z,6.77
2023-04-06T23:44:15.480Z,6.70
2023-04-06T23:46:42.351Z,6.77
2023-04-06T23:49:09.208Z,6.75
2023-04-06T23:51:35.914Z,6.72
2023-04-06T23:54:02.902Z,6.74
2023-04-06T23:56:31.780Z,6.77
2023-04-06T23:58:58.538Z,6.73
